EPWR/WRO METAR and TAF weather

Enter ICAO airport designator
Station Type Date Time Source
EPWR METAR 2018/07/19 07:00 UTC NOAA

EPWR 190700Z 29015KT 9999 BKN012 19/16 Q1013


Station Type Date Time Source
EPWR Decoded METAR 2018/07/19 07:00 UTC NOAA

Wroclaw Ii, Poland (EPWR) 51-06N 016-53E 121M
Jul 19, 2018 - 03:00 AM EDT / 2018.07.19 0700 UTC
Wind: from the WNW (290 degrees) at 17 MPH (15 KT):0
Visibility: greater than 7 mile(s):0
Sky conditions: mostly cloudy
Temperature: 66 F (19 C)
Dew Point: 60 F (16 C)
Relative Humidity: 82%
Pressure (altimeter): 29.91 in. Hg (1013 hPa)
ob: EPWR 190700Z 29015KT 9999 BKN012 19/16 Q1013
cycle: 7

Station Type Date Time Source
EPWR TAF 2018/07/19 06:33 UTC NOAA

TAF EPWR 190530Z 1906/2006 30010KT 9999 BKN028
TEMPO 1906/1922 3500 SHRA BKN004 BKN013CB
TEMPO 2002/2006 1400 BR BKN004


Example: see airport list